Airfield :
LOGIN :

Register | Disclaimer

   EN    FR    IT 

 










Legend :    VFR   Marginal VFR   IFR   Intensive IFR   Very Intensive IFR
Visi :
Ceiling :
>= 8 km
>= 3000ft
5 to 8 km
1000 to 3000 ft
1500m to 5 km
500 to 1000 ft
800 to 1500m
200 to 500 ft
< 800m
< 200 ft
Symbols :   Thunderstorms  Fog  Heavy snow  Heavy precipitations  Wind > 20 kt
SIGMETs :     Misc.  Thunderstorms  Icing  Turbulence  Mountain Waves  Volcanic Ashes






- Airport Elevation : 53 ft
- IATA code : HAM


EDDH - Hamburg

CURRENT METAR :
  • 230750Z 15004KT 130V190 7000 NSC 09/08 Q1021 NOSIG

EXPIRED METARs :
  • 230720Z VRB02KT 6000 SCT033 09/08 Q1021 NOSIG
  • 230650Z 15003KT 120V190 4500 R15/0800VP2000D BCFG BR FEW002 SCT034 09/08 Q1021 TEMPO 1200 BKN002
  • 230620Z VRB02KT 4000 BR SCT002 BKN034 08/08 Q1021 TEMPO 1200 BKN002
  • 230550Z 15003KT 120V180 4000 BR BKN002 BKN034 09/08 Q1021 TEMPO 1200
  • 230520Z 14003KT 110V180 2500 BR BKN002 BKN033 09/08 Q1021 TEMPO 0700 FG

TAF AMD TAF EDDH
Valid from the 23 at 07:00 until the 24 at 12:00 UTC


230720Z 2307/2412 VRB03KT 9999 SCT020
TEMPO 2307/2309 2000 BR
PROB30
TEMPO 2307/2309 0700 FG OVC001
BECMG 2309/2311 12006KT
BECMG 2319/2322 3500 BR BKN006
PROB30
TEMPO 2323/2408 0800 FG OVC002
BECMG 2409/2412 8000 BKN012



MET'MAP, your aeronautical weather chart ! - Copyright ORBIFLY December 2007 - Disclaimer

ORBIFLY MET'MAP TEAM :

Programming & Development : Alexandra Zaïnal
Concept & Development : Baudouin d'Aumeries
Co-Development & Prog : Marc-Olivier Méhu
Technical & hardware support : Manuel Goepfert

Contact : metmap@orbifly.com




SOURCES & CREDITS :

   NOAA